Time;durP1;ratioP1;P1;durP2;ratioP2;P2;SDS_P1;SDS_P2;PMS_P1;PMS_P2;Temp;Humidity;BMP_temperature;BMP_pressure;BME280_temperature;BME280_humidity;BME280_pressure;Samples;Min_cycle;Max_cycle;Signal;HPM_P1;HPM_P2
2021/12/03 00:01:11;;;;;;;41.58;11.93;;;3.90;87.30;;;;;;5014681;28;20202;-81
2021/12/03 00:03:37;;;;;;;32.75;11.25;;;4.00;87.30;;;;;;5015806;28;20579;-81
2021/12/03 00:06:03;;;;;;;32.63;13.05;;;4.10;87.20;;;;;;5022694;28;20185;-81
2021/12/03 00:08:30;;;;;;;38.00;11.82;;;4.10;87.10;;;;;;5030422;28;20174;-82
2021/12/03 00:11:01;;;;;;;44.42;12.52;;;4.10;87.10;;;;;;5033633;28;20178;-81
2021/12/03 00:13:29;;;;;;;58.55;14.85;;;4.10;87.00;;;;;;5026709;28;20669;-81
2021/12/03 00:15:56;;;;;;;51.88;13.38;;;4.20;86.90;;;;;;5016396;28;20190;-81
2021/12/03 00:18:22;;;;;;;57.30;13.38;;;4.10;86.80;;;;;;5014477;28;20179;-81
2021/12/03 00:20:49;;;;;;;52.65;14.20;;;4.20;86.70;;;;;;5031583;28;20237;-80
2021/12/03 00:23:16;;;;;;;49.35;13.63;;;4.10;86.80;;;;;;5019597;28;20194;-80
2021/12/03 00:25:42;;;;;;;56.53;16.00;;;4.10;86.80;;;;;;5023782;28;20559;-80
2021/12/03 00:28:08;;;;;;;43.80;14.50;;;4.00;86.80;;;;;;5016808;28;20174;-81
2021/12/03 00:30:35;;;;;;;39.45;12.60;;;3.90;87.00;;;;;;5022085;28;20444;-81
2021/12/03 00:33:01;;;;;;;47.42;15.13;;;4.00;87.00;;;;;;5029934;28;20273;-81
2021/12/03 00:35:28;;;;;;;31.08;11.45;;;3.80;87.00;;;;;;5023949;28;20214;-80
2021/12/03 00:37:53;;;;;;;46.25;13.15;;;3.90;87.20;;;;;;5016029;28;20236;-80
2021/12/03 00:40:25;;;;;;;33.80;12.55;;;3.80;87.10;;;;;;5015439;28;20206;-80
2021/12/03 00:42:51;;;;;;;25.63;10.48;;;3.70;87.30;;;;;;5026681;28;20174;-81
2021/12/03 00:45:18;;;;;;;29.10;10.30;;;3.60;87.40;;;;;;5036252;28;20197;-81
2021/12/03 00:47:44;;;;;;;29.95;12.30;;;3.60;87.50;;;;;;5017454;28;20649;-82
2021/12/03 00:50:13;;;;;;;26.73;10.60;;;3.60;87.60;;;;;;5029040;28;20664;-81
2021/12/03 00:52:39;;;;;;;29.77;11.93;;;3.60;87.70;;;;;;5036480;28;20193;-81
2021/12/03 00:55:07;;;;;;;24.92;10.05;;;3.60;87.70;;;;;;5026234;28;20249;-81
2021/12/03 00:57:33;;;;;;;24.10;10.88;;;3.60;88.10;;;;;;5031377;28;20269;-81
2021/12/03 00:59:58;;;;;;;20.58;9.38;;;3.60;87.70;;;;;;5020055;28;20218;-80
2021/12/03 01:02:24;;;;;;;27.03;11.00;;;3.50;87.90;;;;;;5036821;28;20182;-81
2021/12/03 01:04:50;;;;;;;21.30;11.20;;;3.50;88.00;;;;;;5027224;28;20448;-80
2021/12/03 01:07:16;;;;;;;20.23;11.17;;;3.50;88.10;;;;;;5017531;28;20803;-81
2021/12/03 01:09:43;;;;;;;21.13;11.10;;;3.40;88.10;;;;;;5017168;28;20175;-80
2021/12/03 01:12:09;;;;;;;30.70;12.02;;;3.40;88.30;;;;;;5018350;28;20456;-81
2021/12/03 01:14:36;;;;;;;19.45;10.02;;;3.40;88.40;;;;;;5018147;28;20199;-80
2021/12/03 01:17:03;;;;;;;26.38;12.75;;;3.50;88.50;;;;;;5017325;28;20187;-81
2021/12/03 01:19:29;;;;;;;26.40;12.63;;;3.40;88.40;;;;;;5022463;28;20182;-80
2021/12/03 01:21:55;;;;;;;25.15;11.48;;;3.40;88.50;;;;;;5032571;28;20191;-81
2021/12/03 01:24:21;;;;;;;38.30;13.30;;;3.40;88.60;;;;;;5020707;28;20202;-81
2021/12/03 01:26:50;;;;;;;26.70;13.37;;;3.30;88.70;;;;;;5030593;28;20254;-80
2021/12/03 01:29:15;;;;;;;30.90;14.00;;;3.30;88.70;;;;;;5025439;28;20664;-80
2021/12/03 01:31:41;;;;;;;56.60;15.30;;;3.30;88.90;;;;;;5025409;28;20190;-80
2021/12/03 01:34:07;;;;;;;28.70;13.37;;;3.30;88.90;;;;;;5017237;28;20217;-81
2021/12/03 01:36:33;;;;;;;39.93;15.57;;;3.40;88.90;;;;;;5034280;28;20433;-80
2021/12/03 01:38:59;;;;;;;38.80;14.57;;;3.40;88.90;;;;;;5036599;28;20782;-81
2021/12/03 01:41:27;;;;;;;37.53;15.27;;;3.50;88.90;;;;;;5023373;28;20846;-80
2021/12/03 01:43:58;;;;;;;29.30;13.77;;;3.70;88.60;;;;;;5038177;28;20198;-81
2021/12/03 01:46:24;;;;;;;42.03;12.15;;;3.50;88.50;;;;;;5032929;28;20224;-80
2021/12/03 01:48:50;;;;;;;41.93;15.00;;;3.60;88.50;;;;;;5039945;28;20662;-80
2021/12/03 01:51:16;;;;;;;31.77;12.50;;;3.60;88.40;;;;;;5039216;28;20435;-81
2021/12/03 01:53:42;;;;;;;44.60;12.13;;;3.60;88.40;;;;;;5034232;28;20427;-80
2021/12/03 01:56:13;;;;;;;28.13;12.77;;;3.50;88.60;;;;;;5031232;28;20425;-81
2021/12/03 01:58:40;;;;;;;22.15;12.23;;;3.50;88.50;;;;;;5030775;28;20435;-81
2021/12/03 02:01:10;;;;;;;21.65;11.98;;;3.50;88.70;;;;;;5040898;28;20217;-80
2021/12/03 02:03:40;;;;;;;22.77;12.57;;;3.50;88.80;;;;;;5042328;28;20166;-81
2021/12/03 02:06:08;;;;;;;18.98;11.13;;;3.50;88.80;;;;;;5021010;28;20187;-81
2021/12/03 02:08:33;;;;;;;20.45;10.00;;;3.50;88.80;;;;;;5024124;28;20232;-80
2021/12/03 02:11:01;;;;;;;30.23;11.63;;;3.60;88.80;;;;;;5018225;28;20499;-80
2021/12/03 02:13:27;;;;;;;26.83;11.80;;;3.50;88.80;;;;;;5018561;28;20241;-81
2021/12/03 02:15:53;;;;;;;34.10;12.00;;;3.60;88.80;;;;;;5018868;28;20183;-80
2021/12/03 02:18:19;;;;;;;30.70;11.73;;;3.60;88.70;;;;;;5019682;28;20786;-81
2021/12/03 02:20:46;;;;;;;21.88;12.50;;;3.70;88.60;;;;;;5017459;28;21067;-81
2021/12/03 02:23:13;;;;;;;23.85;11.50;;;3.80;88.50;;;;;;5017994;28;20540;-80
2021/12/03 02:25:39;;;;;;;23.85;11.18;;;4.00;89.00;;;;;;5018676;28;20187;-81
2021/12/03 02:28:05;;;;;;;23.75;10.98;;;3.90;88.10;;;;;;5032727;28;20558;-80
2021/12/03 02:30:31;;;;;;;25.67;13.20;;;3.80;87.90;;;;;;5033898;28;20189;-81
2021/12/03 02:32:57;;;;;;;20.48;11.05;;;4.00;87.80;;;;;;5020992;28;20489;-80
2021/12/03 02:35:24;;;;;;;23.83;11.40;;;4.00;87.50;;;;;;5043990;28;20288;-81
2021/12/03 02:37:51;;;;;;;27.13;10.82;;;4.00;87.30;;;;;;5025581;28;20966;-80
2021/12/03 02:40:19;;;;;;;18.42;10.85;;;4.00;87.10;;;;;;5025699;28;20720;-81
2021/12/03 02:42:46;;;;;;;22.80;13.15;;;4.00;87.10;;;;;;5042159;28;20213;-80
2021/12/03 02:45:13;;;;;;;23.27;11.15;;;4.00;87.00;;;;;;5047232;28;20209;-81
2021/12/03 02:47:40;;;;;;;18.42;11.43;;;4.00;86.90;;;;;;5048345;28;20346;-81
2021/12/03 02:50:08;;;;;;;21.13;12.05;;;3.90;87.00;;;;;;5032294;28;20189;-81
2021/12/03 02:52:34;;;;;;;20.77;11.10;;;4.10;87.00;;;;;;5019751;28;20183;-80
2021/12/03 02:55:00;;;;;;;19.05;10.68;;;4.10;86.70;;;;;;5030099;28;20212;-81
2021/12/03 02:57:26;;;;;;;17.13;10.43;;;3.80;86.60;;;;;;5035577;28;20177;-80
2021/12/03 02:59:52;;;;;;;24.50;10.07;;;3.90;86.80;;;;;;5029464;28;20183;-81
2021/12/03 03:02:18;;;;;;;23.05;11.90;;;4.00;86.70;;;;;;5028562;28;20185;-80
2021/12/03 03:04:44;;;;;;;19.00;10.30;;;3.90;86.80;;;;;;5021583;28;20618;-80
2021/12/03 03:07:10;;;;;;;18.07;11.23;;;4.00;86.80;;;;;;5014636;28;20817;-80
2021/12/03 03:09:36;;;;;;;28.17;11.97;;;3.90;86.90;;;;;;5022319;28;20425;-79
2021/12/03 03:12:02;;;;;;;19.83;10.93;;;3.90;87.00;;;;;;5030246;28;20240;-81
2021/12/03 03:14:28;;;;;;;33.92;11.70;;;3.90;87.10;;;;;;5027138;28;20203;-80
2021/12/03 03:16:56;;;;;;;25.20;10.90;;;4.00;87.00;;;;;;5017792;28;20202;-80
2021/12/03 03:19:23;;;;;;;23.70;9.52;;;3.90;87.00;;;;;;5033069;28;20190;-81
2021/12/03 03:21:49;;;;;;;24.50;11.15;;;3.70;87.00;;;;;;5025241;28;20696;-81
2021/12/03 03:24:16;;;;;;;30.55;12.90;;;3.70;87.30;;;;;;5029596;28;20220;-81
2021/12/03 03:26:45;;;;;;;44.83;12.63;;;3.70;87.40;;;;;;5043581;28;20185;-80
2021/12/03 03:29:13;;;;;;;30.25;10.88;;;3.70;87.50;;;;;;5037024;28;20205;-81
2021/12/03 03:31:39;;;;;;;30.92;10.93;;;3.80;87.30;;;;;;5052674;28;20202;-80
2021/12/03 03:34:07;;;;;;;33.55;11.45;;;3.90;87.20;;;;;;5044001;28;20289;-80
2021/12/03 03:36:38;;;;;;;25.67;12.05;;;3.80;87.10;;;;;;5034221;28;20190;-80
2021/12/03 03:39:11;;;;;;;23.98;11.40;;;3.70;87.20;;;;;;5021715;28;20197;-81
2021/12/03 03:41:37;;;;;;;32.08;11.40;;;3.70;87.20;;;;;;5030325;28;20201;-81
2021/12/03 03:44:03;;;;;;;31.10;11.45;;;3.80;87.10;;;;;;5034514;28;20297;-81
2021/12/03 03:46:29;;;;;;;24.85;10.82;;;3.70;87.10;;;;;;5018965;28;20178;-81
2021/12/03 03:48:55;;;;;;;25.87;11.57;;;3.80;87.10;;;;;;5026143;28;20182;-81
2021/12/03 03:51:21;;;;;;;30.27;11.68;;;3.80;87.20;;;;;;5014143;28;20422;-82
2021/12/03 03:53:47;;;;;;;24.50;11.00;;;3.70;87.10;;;;;;5013979;28;20217;-82
2021/12/03 03:56:13;;;;;;;23.83;10.20;;;3.80;86.90;;;;;;5018838;28;20425;-82
2021/12/03 03:58:41;;;;;;;29.45;11.13;;;3.70;87.00;;;;;;5032720;28;20425;-80
2021/12/03 04:01:11;;;;;;;21.88;10.60;;;3.60;86.90;;;;;;5026690;28;20193;-81
2021/12/03 04:03:37;;;;;;;25.75;11.00;;;3.70;87.00;;;;;;5026707;28;20167;-80
2021/12/03 04:06:03;;;;;;;25.90;10.50;;;3.60;86.90;;;;;;5032578;28;20586;-81
2021/12/03 04:08:29;;;;;;;29.38;11.50;;;3.60;87.00;;;;;;5016931;28;20425;-81
2021/12/03 04:10:59;;;;;;;18.73;11.05;;;3.60;86.90;;;;;;5030463;28;20641;-81
2021/12/03 04:13:27;;;;;;;20.67;10.90;;;3.70;86.70;;;;;;5014894;28;20254;-81
2021/12/03 04:15:53;;;;;;;24.20;10.80;;;3.80;86.60;;;;;;5030423;28;20613;-81
2021/12/03 04:18:19;;;;;;;30.77;10.63;;;3.70;86.50;;;;;;5026391;28;20185;-80
2021/12/03 04:20:44;;;;;;;29.63;10.83;;;3.70;86.50;;;;;;5021328;28;20210;-81
2021/12/03 04:23:16;;;;;;;21.27;10.80;;;3.60;86.40;;;;;;5032305;28;20417;-81
2021/12/03 04:25:42;;;;;;;20.73;10.30;;;3.70;86.20;;;;;;5034390;28;20451;-81
2021/12/03 04:28:08;;;;;;;19.13;8.87;;;3.80;85.80;;;;;;5023323;28;20603;-81
2021/12/03 04:30:34;;;;;;;26.20;9.53;;;3.80;85.60;;;;;;5015184;28;20436;-81
2021/12/03 04:33:00;;;;;;;18.93;8.73;;;3.70;85.60;;;;;;5016411;28;20429;-80
2021/12/03 04:35:26;;;;;;;25.45;9.43;;;3.80;85.50;;;;;;5033611;28;20444;-81
2021/12/03 04:37:53;;;;;;;24.45;10.68;;;3.80;85.40;;;;;;5026165;28;20190;-80
2021/12/03 04:40:21;;;;;;;29.98;9.25;;;3.70;85.20;;;;;;5032461;28;20198;-81
2021/12/03 04:42:47;;;;;;;27.27;9.23;;;3.60;85.10;;;;;;5025342;28;20269;-82
2021/12/03 04:45:18;;;;;;;18.23;8.65;;;3.60;85.30;;;;;;5023223;28;20768;-81
2021/12/03 04:47:44;;;;;;;23.35;8.43;;;3.80;85.30;;;;;;5032590;28;20205;-80
2021/12/03 04:50:12;;;;;;;17.33;8.38;;;3.90;85.20;;;;;;5029765;28;20316;-80
2021/12/03 04:52:38;;;;;;;19.38;9.35;;;4.00;84.70;;;;;;5013386;28;20183;-80
2021/12/03 04:55:05;;;;;;;22.90;7.90;;;3.90;84.40;;;;;;5020422;28;20221;-81
2021/12/03 04:57:31;;;;;;;20.85;8.57;;;4.00;84.10;;;;;;5017525;28;20178;-80
2021/12/03 04:59:56;;;;;;;23.75;9.82;;;4.10;84.00;;;;;;5032178;28;20186;-81
2021/12/03 05:02:24;;;;;;;28.53;9.33;;;4.20;83.60;;;;;;5030705;28;20216;-80
2021/12/03 05:04:52;;;;;;;17.33;8.60;;;4.20;83.40;;;;;;5020147;28;20286;-80
2021/12/03 05:09:52;;;;;;;23.40;8.23;;;4.40;82.50;;;;;;5026885;28;20174;-81
2021/12/03 05:12:18;;;;;;;16.23;7.17;;;4.40;82.10;;;;;;5022692;28;20181;-80
2021/12/03 05:14:44;;;;;;;32.50;7.37;;;4.30;82.30;;;;;;5032338;28;20440;-81
2021/12/03 05:17:09;;;;;;;14.90;7.30;;;4.30;82.50;;;;;;5035338;28;20491;-81
2021/12/03 05:19:35;;;;;;;23.03;8.40;;;4.20;82.60;;;;;;5027466;28;20429;-81
2021/12/03 05:22:01;;;;;;;24.63;8.20;;;4.40;82.40;;;;;;5027657;28;20202;-80
2021/12/03 05:24:27;;;;;;;29.90;8.32;;;4.40;81.90;;;;;;5041146;28;20477;-80
2021/12/03 05:26:53;;;;;;;21.17;5.60;;;4.50;81.40;;;;;;5027381;28;20197;-80
2021/12/03 05:29:20;;;;;;;14.88;7.10;;;4.50;80.80;;;;;;5028719;28;20569;-79
2021/12/03 05:31:45;;;;;;;19.25;7.03;;;4.40;80.60;;;;;;5040051;28;20197;-81
2021/12/03 05:34:13;;;;;;;15.63;7.03;;;4.40;81.00;;;;;;5046439;28;20205;-79
2021/12/03 05:36:39;;;;;;;11.52;6.20;;;4.50;80.80;;;;;;5040417;28;20182;-80
2021/12/03 05:39:06;;;;;;;15.88;7.90;;;4.40;80.80;;;;;;5038152;28;20308;-80
2021/12/03 05:41:33;;;;;;;34.25;6.32;;;4.50;80.50;;;;;;5037424;28;20384;-80
2021/12/03 05:43:58;;;;;;;17.30;7.60;;;4.30;80.60;;;;;;5032322;28;20202;-81
2021/12/03 05:46:24;;;;;;;17.60;6.47;;;4.40;81.00;;;;;;5046065;28;20253;-80
2021/12/03 05:48:50;;;;;;;16.27;6.77;;;4.50;80.70;;;;;;5039132;28;20182;-81
2021/12/03 05:51:16;;;;;;;24.93;7.17;;;4.50;80.20;;;;;;5022568;28;20183;-81
2021/12/03 05:53:41;;;;;;;24.50;7.90;;;4.60;80.00;;;;;;5020265;28;20661;-80
2021/12/03 05:56:07;;;;;;;24.17;7.70;;;4.50;79.90;;;;;;5028129;28;20432;-80
2021/12/03 05:58:33;;;;;;;20.00;6.57;;;4.50;79.90;;;;;;5034290;28;20257;-81
2021/12/03 06:00:58;;;;;;;20.67;5.93;;;4.40;80.00;;;;;;5037413;28;20260;-80
2021/12/03 06:03:24;;;;;;;13.00;5.93;;;4.50;80.30;;;;;;5034447;28;20420;-80
2021/12/03 06:05:50;;;;;;;23.10;6.87;;;4.40;80.00;;;;;;5016175;28;20432;-80
2021/12/03 06:08:16;;;;;;;13.07;4.57;;;4.50;79.90;;;;;;5032362;28;20527;-79
2021/12/03 06:10:42;;;;;;;17.50;5.83;;;4.60;79.40;;;;;;5024813;28;20220;-80
2021/12/03 06:13:08;;;;;;;20.45;6.03;;;4.40;79.30;;;;;;5016499;28;20992;-80
2021/12/03 06:15:34;;;;;;;14.88;4.97;;;4.30;79.60;;;;;;5034666;28;20209;-79
2021/12/03 06:18:00;;;;;;;14.50;5.67;;;4.30;79.90;;;;;;5032110;28;20673;-79
2021/12/03 06:20:26;;;;;;;19.00;5.70;;;4.30;80.10;;;;;;5025504;28;20470;-80
2021/12/03 06:22:52;;;;;;;13.70;4.43;;;4.50;79.30;;;;;;5022711;28;20171;-79
2021/12/03 06:25:19;;;;;;;23.95;6.45;;;4.50;79.50;;;;;;5015883;28;20337;-80
2021/12/03 06:27:45;;;;;;;21.77;4.95;;;4.60;78.60;;;;;;5028972;28;20174;-80
2021/12/03 06:30:16;;;;;;;17.97;7.13;;;4.60;78.60;;;;;;5032683;28;20182;-81
2021/12/03 06:32:42;;;;;;;18.10;6.10;;;4.70;78.20;;;;;;5028878;28;20424;-81
2021/12/03 06:35:11;;;;;;;17.75;6.20;;;4.70;77.70;;;;;;5034879;28;20644;-81
2021/12/03 06:37:37;;;;;;;16.13;6.68;;;4.70;77.50;;;;;;5027349;28;20186;-81
2021/12/03 06:40:06;;;;;;;15.75;6.78;;;4.70;77.70;;;;;;5018646;28;20210;-81
2021/12/03 06:42:31;;;;;;;22.33;7.30;;;4.60;77.50;;;;;;5027482;28;20189;-81
2021/12/03 06:44:57;;;;;;;21.63;7.33;;;4.50;77.80;;;;;;5029714;28;20666;-79
2021/12/03 06:47:23;;;;;;;21.53;6.37;;;4.50;77.80;;;;;;5035757;28;20784;-80
2021/12/03 06:49:49;;;;;;;15.13;6.20;;;4.40;79.00;;;;;;5020892;28;20431;-80
2021/12/03 06:52:16;;;;;;;18.57;5.97;;;4.40;78.60;;;;;;5035889;28;20174;-80
2021/12/03 06:54:43;;;;;;;18.90;6.97;;;4.30;79.20;;;;;;5016576;28;20475;-80
2021/12/03 06:57:10;;;;;;;13.95;6.20;;;4.30;79.80;;;;;;5026804;28;20264;-80
2021/12/03 06:59:37;;;;;;;22.98;6.38;;;4.40;79.50;;;;;;5027178;28;20194;-79
2021/12/03 07:02:04;;;;;;;19.33;5.30;;;4.20;79.80;;;;;;5026775;28;20218;-80
2021/12/03 07:04:29;;;;;;;20.73;7.22;;;4.40;79.80;;;;;;5025652;28;20245;-80
2021/12/03 07:06:55;;;;;;;20.23;6.50;;;4.60;79.60;;;;;;5044679;28;20186;-80
2021/12/03 07:09:21;;;;;;;22.37;5.07;;;4.60;79.60;;;;;;5021530;28;20667;-79
2021/12/03 07:11:47;;;;;;;22.90;7.28;;;4.60;79.70;;;;;;5022509;28;20425;-81
2021/12/03 07:14:13;;;;;;;19.80;7.00;;;4.70;79.40;;;;;;5034918;28;20228;-80
2021/12/03 07:16:39;;;;;;;14.13;5.70;;;4.50;79.30;;;;;;5034966;28;20423;-80
2021/12/03 07:19:05;;;;;;;18.83;6.28;;;4.60;79.40;;;;;;5034390;28;20182;-80
2021/12/03 07:21:31;;;;;;;9.45;5.05;;;4.50;79.30;;;;;;5027405;28;20230;-81
2021/12/03 07:23:57;;;;;;;18.63;5.87;;;4.50;79.50;;;;;;5034147;28;20194;-81
2021/12/03 07:26:24;;;;;;;12.38;5.22;;;4.50;79.90;;;;;;5027261;28;20519;-80
2021/12/03 07:28:51;;;;;;;18.73;6.97;;;4.50;80.10;;;;;;5023312;28;20195;-79
2021/12/03 07:31:17;;;;;;;13.73;5.15;;;4.60;80.90;;;;;;5014507;28;20197;-79
2021/12/03 07:33:43;;;;;;;9.77;5.20;;;4.50;80.00;;;;;;5029534;28;20567;-80
2021/12/03 07:36:09;;;;;;;19.97;5.60;;;4.50;80.20;;;;;;5019609;28;20194;-79
2021/12/03 07:38:36;;;;;;;18.20;5.27;;;4.70;79.80;;;;;;5015042;28;20437;-79
2021/12/03 07:41:03;;;;;;;20.15;4.93;;;4.80;79.40;;;;;;5026645;28;20208;-79
2021/12/03 07:43:29;;;;;;;18.05;4.53;;;4.80;78.90;;;;;;5028687;28;20182;-79
2021/12/03 07:45:55;;;;;;;15.73;6.37;;;4.70;78.60;;;;;;5034230;28;20658;-80
2021/12/03 07:48:23;;;;;;;12.68;5.03;;;4.80;78.40;;;;;;5022962;28;20461;-81
2021/12/03 07:50:50;;;;;;;11.80;4.80;;;4.80;78.00;;;;;;5017812;28;20194;-80
2021/12/03 07:53:18;;;;;;;14.18;4.82;;;4.80;77.70;;;;;;5021863;28;20201;-80
2021/12/03 07:55:45;;;;;;;13.23;4.97;;;4.80;77.70;;;;;;5045019;28;20650;-80
2021/12/03 07:58:11;;;;;;;11.80;4.70;;;4.70;77.80;;;;;;5041244;28;20181;-79
2021/12/03 08:00:37;;;;;;;9.70;4.57;;;4.80;78.10;;;;;;5027637;28;20221;-80
2021/12/03 08:03:04;;;;;;;15.10;5.25;;;4.80;78.20;;;;;;5044327;28;20428;-80
2021/12/03 08:05:30;;;;;;;10.85;5.50;;;4.80;78.10;;;;;;5025482;28;20206;-80
2021/12/03 08:07:58;;;;;;;12.95;4.60;;;4.80;78.00;;;;;;5016746;28;20669;-79
2021/12/03 08:10:24;;;;;;;15.90;6.00;;;4.90;78.20;;;;;;5017842;28;20232;-80
2021/12/03 08:12:49;;;;;;;15.68;5.15;;;4.90;78.40;;;;;;5025343;28;20221;-79
2021/12/03 08:15:16;;;;;;;7.33;3.90;;;4.90;78.30;;;;;;5027260;28;20206;-80
2021/12/03 08:17:42;;;;;;;18.20;6.40;;;4.70;78.30;;;;;;5027990;28;20194;-80
2021/12/03 08:20:09;;;;;;;20.83;5.63;;;4.90;78.60;;;;;;5032273;28;20390;-80
2021/12/03 08:22:35;;;;;;;11.18;4.10;;;4.90;78.50;;;;;;5021216;28;20178;-79
2021/12/03 08:25:02;;;;;;;19.98;4.70;;;4.80;78.40;;;;;;5033559;28;20229;-79
2021/12/03 08:27:29;;;;;;;26.75;7.30;;;4.90;79.00;;;;;;5035771;28;20264;-80
2021/12/03 08:29:54;;;;;;;14.88;4.80;;;4.90;78.90;;;;;;5027167;28;20213;-79
2021/12/03 08:32:20;;;;;;;14.73;5.00;;;5.00;78.80;;;;;;5015344;28;20614;-80
2021/12/03 08:34:46;;;;;;;12.50;3.75;;;5.10;78.90;;;;;;5025166;28;20445;-79
2021/12/03 08:37:12;;;;;;;10.00;3.97;;;5.10;78.80;;;;;;5026179;28;20209;-80
2021/12/03 08:39:38;;;;;;;10.67;4.50;;;5.20;78.80;;;;;;5026243;28;20712;-79
2021/12/03 08:42:06;;;;;;;13.77;5.47;;;5.30;78.70;;;;;;5026909;28;20484;-79
2021/12/03 08:44:32;;;;;;;13.45;4.25;;;5.30;78.10;;;;;;5028545;28;20201;-79
2021/12/03 08:47:02;;;;;;;11.82;4.95;;;5.00;77.90;;;;;;5029209;28;20229;-80
2021/12/03 08:49:33;;;;;;;17.33;4.43;;;5.20;78.30;;;;;;5028161;28;20618;-78
2021/12/03 08:52:22;;;;;;;17.33;3.97;;;5.30;78.50;;;;;;5026008;28;20731;-80
2021/12/03 08:57:30;;;;;;;9.27;3.95;;;5.40;78.10;;;;;;5034371;28;20186;-79
2021/12/03 08:59:58;;;;;;;14.90;5.20;;;5.50;78.30;;;;;;5016547;28;20191;-78
2021/12/03 09:02:24;;;;;;;18.42;4.57;;;5.50;77.80;;;;;;5029683;28;20200;-79
2021/12/03 09:04:50;;;;;;;7.13;3.95;;;5.60;77.80;;;;;;5041153;28;20677;-80
2021/12/03 09:07:16;;;;;;;9.13;3.53;;;5.60;78.20;;;;;;5039384;28;20209;-78
2021/12/03 09:09:42;;;;;;;17.67;4.65;;;5.50;78.20;;;;;;5024490;28;20182;-79
2021/12/03 09:12:09;;;;;;;12.45;4.20;;;5.60;78.50;;;;;;5036561;28;20204;-79
2021/12/03 09:14:44;;;;;;;9.43;4.20;;;5.60;78.40;;;;;;5040707;28;20252;-80
2021/12/03 09:17:28;;;;;;;8.38;4.35;;;5.50;78.30;;;;;;5027373;28;20207;-80
2021/12/03 09:25:02;;;;;;;16.02;5.20;;;5.70;78.20;;;;;;5040967;28;20206;-79
2021/12/03 09:27:28;;;;;;;14.50;4.70;;;5.70;78.00;;;;;;5030090;28;20170;-80
2021/12/03 09:29:54;;;;;;;10.90;5.20;;;5.80;77.90;;;;;;5032562;28;20186;-80
2021/12/03 09:32:28;;;;;;;14.10;5.88;;;5.80;77.90;;;;;;5029811;28;20378;-80
2021/12/03 09:34:55;;;;;;;18.75;5.47;;;5.80;77.70;;;;;;5044756;28;20223;-81
2021/12/03 09:37:22;;;;;;;17.60;6.47;;;5.90;77.70;;;;;;5031313;28;20205;-79
2021/12/03 09:39:47;;;;;;;11.48;5.05;;;5.90;77.40;;;;;;5034034;28;20214;-80
2021/12/03 09:42:18;;;;;;;10.13;4.10;;;5.70;76.60;;;;;;5019758;28;20228;-80
2021/12/03 09:44:49;;;;;;;17.30;5.55;;;5.40;77.20;;;;;;5029958;28;20440;-80
2021/12/03 09:47:15;;;;;;;8.48;4.80;;;5.40;77.70;;;;;;5028331;28;20539;-80
2021/12/03 09:49:42;;;;;;;10.60;4.35;;;5.40;77.90;;;;;;5023853;28;20202;-80
2021/12/03 09:54:44;;;;;;;12.35;4.50;;;5.60;77.70;;;;;;5018596;28;20611;-80
2021/12/03 09:57:27;;;;;;;11.93;4.90;;;5.80;78.60;;;;;;5021567;28;20182;-79
2021/12/03 10:02:48;;;;;;;9.05;4.90;;;5.90;76.80;;;;;;5026395;28;20230;-80
2021/12/03 10:05:39;;;;;;;7.10;4.07;;;6.00;76.60;;;;;;5028055;28;20198;-79
2021/12/03 10:13:34;;;;;;;9.32;4.18;;;6.30;75.90;;;;;;5035373;28;20204;-79
2021/12/03 10:16:13;;;;;;;12.35;4.43;;;5.70;76.10;;;;;;5023934;28;20182;-79
2021/12/03 10:18:52;;;;;;;11.13;4.97;;;5.60;76.30;;;;;;5020687;28;20182;-80
2021/12/03 10:25:10;;;;;;;9.73;3.83;;;5.50;76.80;;;;;;5027273;28;20198;-80
2021/12/03 10:30:34;;;;;;;7.93;5.43;;;5.60;77.70;;;;;;5026014;28;20629;-79
2021/12/03 10:41:28;;;;;;;10.05;4.53;;;5.80;77.20;;;;;;5036290;28;20742;-79
2021/12/03 11:11:03;;;;;;;8.40;3.97;;;6.60;73.80;;;;;;5036179;28;20235;-79
2021/12/03 11:58:53;;;;;;;6.55;3.47;;;7.20;71.00;;;;;;5034478;28;20651;-80
2021/12/03 13:11:56;;;;;;;3.75;2.80;;;6.90;74.90;;;;;;5027519;28;20209;-80
2021/12/03 13:20:12;;;;;;;2.85;2.35;;;6.70;75.40;;;;;;5019728;28;20185;-81
2021/12/03 13:37:56;;;;;;;5.22;3.13;;;6.50;78.50;;;;;;5061141;28;20604;-79
2021/12/03 14:05:36;;;;;;;4.95;3.20;;;6.50;79.40;;;;;;5034424;28;20656;-80
2021/12/03 14:07:33;;;;;;;6.03;3.20;;;6.40;79.30;;;;;;5028417;28;20282;-80
2021/12/03 14:10:32;;;;;;;6.03;3.47;;;6.50;79.50;;;;;;5019170;28;20686;-81
2021/12/03 14:56:41;;;;;;;5.00;3.88;;;6.30;81.70;;;;;;5030001;28;20261;-81
2021/12/03 14:59:29;;;;;;;5.22;3.70;;;6.40;82.00;;;;;;5028382;28;20182;-80
2021/12/03 15:02:14;;;;;;;3.17;2.75;;;6.10;82.10;;;;;;5016241;28;20190;-79
2021/12/03 15:07:32;;;;;;;7.10;3.72;;;6.20;83.00;;;;;;5023379;28;20159;-81
2021/12/03 15:09:59;;;;;;;3.40;3.10;;;6.20;83.10;;;;;;5041777;28;20181;-81
2021/12/03 15:18:36;;;;;;;3.83;3.53;;;6.30;83.30;;;;;;5065384;28;20288;-81
2021/12/03 15:26:04;;;;;;;3.83;3.47;;;6.30;83.60;;;;;;5045005;28;20189;-79
2021/12/03 15:29:06;;;;;;;6.88;4.15;;;6.30;83.50;;;;;;5043561;28;20174;-80
2021/12/03 15:34:54;;;;;;;6.32;4.47;;;6.20;83.70;;;;;;5042349;28;20251;-80
2021/12/03 16:03:54;;;;;;;4.30;3.80;;;6.10;86.10;;;;;;5046824;28;20606;-79
2021/12/03 16:06:29;;;;;;;5.10;4.60;;;6.10;86.00;;;;;;5045938;28;20248;-80
2021/12/03 16:09:26;;;;;;;5.30;4.22;;;6.30;86.10;;;;;;5045195;28;20785;-80
2021/12/03 16:11:59;;;;;;;4.75;4.35;;;6.10;85.40;;;;;;5042230;28;20197;-79
2021/12/03 16:22:44;;;;;;;3.75;3.38;;;6.10;85.70;;;;;;5044090;28;20719;-81
2021/12/03 16:25:27;;;;;;;4.10;3.70;;;6.20;85.50;;;;;;5037927;28;20190;-80
2021/12/03 16:51:57;;;;;;;4.72;3.63;;;5.80;87.30;;;;;;5058316;28;20438;-82
2021/12/03 16:54:28;;;;;;;4.90;4.30;;;5.70;87.50;;;;;;5055479;28;20205;-80
2021/12/03 16:56:55;;;;;;;9.30;4.47;;;5.70;88.00;;;;;;5056867;28;20177;-81
2021/12/03 16:59:22;;;;;;;4.78;4.28;;;5.80;88.20;;;;;;5058021;28;20184;-81
2021/12/03 17:01:56;;;;;;;6.00;4.82;;;5.90;88.40;;;;;;5050320;28;20198;-81
2021/12/03 17:59:46;;;;;;;7.68;6.75;;;5.60;86.90;;;;;;5041133;28;20189;-81
2021/12/03 18:58:03;;;;;;;6.23;5.63;;;5.60;89.50;;;;;;5039763;28;20178;-84
2021/12/03 19:00:33;;;;;;;11.70;7.22;;;5.70;89.80;;;;;;5021041;28;20194;-84
2021/12/03 19:03:04;;;;;;;10.98;5.70;;;5.70;89.90;;;;;;5019545;28;20187;-84
2021/12/03 19:10:32;;;;;;;7.40;6.10;;;5.50;90.50;;;;;;5019349;28;20177;-84
2021/12/03 19:13:03;;;;;;;7.78;5.80;;;5.40;90.70;;;;;;5024672;28;20257;-85
2021/12/03 19:15:29;;;;;;;8.85;5.97;;;5.40;90.80;;;;;;5023345;28;20202;-84
2021/12/03 19:18:00;;;;;;;7.45;6.10;;;5.60;91.10;;;;;;5025437;28;20193;-83
2021/12/03 19:20:28;;;;;;;9.88;7.15;;;5.70;91.20;;;;;;5037792;28;20178;-84
2021/12/03 19:22:54;;;;;;;9.90;7.38;;;5.60;91.80;;;;;;5007879;28;20205;-84
2021/12/03 19:25:20;;;;;;;7.53;6.13;;;5.70;91.10;;;;;;5022867;28;20198;-84
2021/12/03 19:27:46;;;;;;;8.20;5.90;;;5.40;91.70;;;;;;5027372;28;20248;-85
2021/12/03 19:30:12;;;;;;;9.20;7.20;;;5.50;91.40;;;;;;5017036;28;20187;-85
2021/12/03 19:32:38;;;;;;;9.73;7.25;;;5.40;91.50;;;;;;5028142;28;20192;-84
2021/12/03 19:35:04;;;;;;;10.27;8.67;;;5.60;91.60;;;;;;5024893;28;20206;-85
2021/12/03 19:37:30;;;;;;;9.73;7.22;;;5.60;91.60;;;;;;5032214;28;20436;-84
2021/12/03 19:40:02;;;;;;;9.43;7.07;;;5.80;91.60;;;;;;5025687;28;20200;-84
2021/12/03 19:42:34;;;;;;;15.93;8.55;;;6.00;91.70;;;;;;5022874;28;20467;-84
2021/12/03 19:45:04;;;;;;;11.10;8.85;;;6.00;91.30;;;;;;5034988;28;20194;-84
2021/12/03 19:53:13;;;;;;;13.80;9.03;;;6.10;91.00;;;;;;5021098;28;20246;-85
2021/12/03 19:55:40;;;;;;;14.35;9.20;;;6.10;90.70;;;;;;5021132;28;20451;-85
2021/12/03 19:58:08;;;;;;;18.75;9.13;;;6.00;90.40;;;;;;5025658;28;20186;-84
2021/12/03 20:00:36;;;;;;;17.00;9.48;;;6.00;90.40;;;;;;5030463;28;20221;-83
2021/12/03 20:03:02;;;;;;;17.42;11.63;;;6.00;90.30;;;;;;5017307;28;20187;-84
2021/12/03 20:05:28;;;;;;;17.15;10.02;;;6.10;90.40;;;;;;5020510;28;20293;-85
2021/12/03 20:07:56;;;;;;;14.20;9.73;;;6.00;90.20;;;;;;5020386;28;20328;-84
2021/12/03 20:10:24;;;;;;;30.50;10.00;;;6.10;90.40;;;;;;5027234;28;20415;-86
2021/12/03 20:12:51;;;;;;;18.23;10.20;;;6.00;90.10;;;;;;5022795;28;20190;-84
2021/12/03 20:20:56;;;;;;;15.27;9.40;;;6.30;90.90;;;;;;5020063;28;20217;-85
2021/12/03 20:24:08;;;;;;;14.20;9.52;;;6.20;89.90;;;;;;5026018;28;20202;-84
2021/12/03 20:31:46;;;;;;;11.57;9.30;;;6.00;89.60;;;;;;5021475;28;20244;-83
2021/12/03 20:34:29;;;;;;;13.40;9.15;;;6.00;89.70;;;;;;5022947;28;20567;-83
2021/12/03 20:37:07;;;;;;;14.32;9.15;;;6.10;90.00;;;;;;5044567;28;20182;-84
2021/12/03 20:39:39;;;;;;;16.40;10.00;;;6.20;90.50;;;;;;5051510;28;20181;-85
2021/12/03 20:48:01;;;;;;;18.35;9.45;;;6.20;89.80;;;;;;5017184;28;20180;-84
2021/12/03 20:59:17;;;;;;;14.77;9.27;;;6.40;89.30;;;;;;5019349;28;20205;-84
2021/12/03 21:09:32;;;;;;;20.80;10.05;;;6.30;89.00;;;;;;5025584;28;20186;-85